createdAt,value
2019-06-08T00:04:33.063Z,5.93
2019-06-08T00:09:39.246Z,6.14
2019-06-08T00:14:45.563Z,6.09
2019-06-08T00:19:51.933Z,6.16
2019-06-08T00:24:58.170Z,5.53
2019-06-08T00:30:04.395Z,4.42
2019-06-08T00:35:10.655Z,4.74
2019-06-08T00:40:16.931Z,3.98
2019-06-08T00:45:23.680Z,3.97
2019-06-08T00:50:29.876Z,3.79
2019-06-08T00:55:36.271Z,3.23
2019-06-08T01:00:42.434Z,2.98
2019-06-08T01:05:48.531Z,4.78
2019-06-08T01:10:54.848Z,3.29
2019-06-08T01:16:01.004Z,2.18
2019-06-08T01:21:07.162Z,2.33
2019-06-08T01:26:13.367Z,2.37
2019-06-08T01:31:20.397Z,2.81
2019-06-08T01:36:27.499Z,1.83
2019-06-08T01:41:33.796Z,3.38
2019-06-08T01:46:40.083Z,2.30
2019-06-08T01:51:46.280Z,1.98
2019-06-08T01:56:52.492Z,2.86
2019-06-08T02:01:58.601Z,2.04
2019-06-08T02:07:04.908Z,2.55
2019-06-08T02:12:11.259Z,2.48
2019-06-08T02:17:17.694Z,2.48
2019-06-08T02:22:23.994Z,2.58
2019-06-08T02:27:31.425Z,2.07
2019-06-08T02:32:38.010Z,1.97
2019-06-08T02:37:44.655Z,2.91
2019-06-08T02:42:50.985Z,1.74
2019-06-08T02:47:57.085Z,1.73
2019-06-08T02:53:03.275Z,2.63
2019-06-08T02:58:09.672Z,2.51
2019-06-08T03:03:15.811Z,1.91
2019-06-08T03:08:22.290Z,2.28
2019-06-08T03:13:31.007Z,2.44
2019-06-08T03:18:38.279Z,2.08
2019-06-08T03:23:46.209Z,2.30
2019-06-08T03:28:52.534Z,1.88
2019-06-08T03:33:59.036Z,3.53
2019-06-08T03:39:05.372Z,1.79
2019-06-08T03:44:11.894Z,2.57
2019-06-08T03:49:40.286Z,2.22
2019-06-08T03:54:20.808Z,2.80
2019-06-08T03:59:27.029Z,1.84
2019-06-08T04:04:33.756Z,2.14
2019-06-08T04:09:41.578Z,1.96
2019-06-08T04:14:48.250Z,1.59
2019-06-08T04:20:09.508Z,1.75
2019-06-08T04:25:00.578Z,2.40
2019-06-08T04:30:06.835Z,3.23
2019-06-08T04:35:13.136Z,1.26
2019-06-08T04:40:19.468Z,3.10
2019-06-08T04:45:25.725Z,2.67
2019-06-08T04:50:32.464Z,2.25
2019-06-08T04:55:38.894Z,1.96
2019-06-08T05:00:48.731Z,1.81
2019-06-08T05:05:47.713Z,1.61
2019-06-08T05:10:56.170Z,2.23
2019-06-08T05:16:05.380Z,1.72
2019-06-08T05:21:14.053Z,2.28
2019-06-08T05:26:20.499Z,2.38
2019-06-08T05:31:26.727Z,2.23
2019-06-08T05:36:33.029Z,1.77
2019-06-08T05:41:39.383Z,2.39
2019-06-08T05:46:45.923Z,2.48
2019-06-08T05:51:52.231Z,2.23
2019-06-08T05:56:59.287Z,2.80
2019-06-08T06:02:06.805Z,1.64
2019-06-08T06:07:13.196Z,1.12
2019-06-08T06:12:27.765Z,2.79
2019-06-08T06:17:43.894Z,2.38
2019-06-08T06:22:25.173Z,2.04
2019-06-08T06:27:31.749Z,2.65
2019-06-08T06:32:38.351Z,2.72
2019-06-08T06:37:46.424Z,4.98
2019-06-08T06:42:53.172Z,1.93
2019-06-08T06:47:59.400Z,1.67
2019-06-08T06:53:06.191Z,2.60
2019-06-08T06:58:12.637Z,2.17
2019-06-08T07:03:19.292Z,3.09
2019-06-08T07:08:25.509Z,3.02
2019-06-08T07:13:32.164Z,2.80
2019-06-08T07:18:38.650Z,2.24
2019-06-08T07:23:46.270Z,3.10
2019-06-08T07:28:53.732Z,3.34
2019-06-08T07:34:01.597Z,3.28
2019-06-08T07:39:07.844Z,2.05
2019-06-08T07:44:14.263Z,3.95
2019-06-08T07:49:20.467Z,3.51
2019-06-08T07:54:26.998Z,2.16
2019-06-08T07:59:33.237Z,4.52
2019-06-08T08:04:39.628Z,3.94
2019-06-08T08:09:46.083Z,3.87
2019-06-08T08:14:53.313Z,4.57
2019-06-08T08:19:59.835Z,2.28
2019-06-08T08:25:08.225Z,2.43
2019-06-08T08:30:14.764Z,3.94
2019-06-08T08:35:21.496Z,2.62
2019-06-08T08:40:28.188Z,4.25
2019-06-08T08:45:37.210Z,6.26
2019-06-08T08:50:43.711Z,2.42
2019-06-08T08:56:01.267Z,4.43
2019-06-08T09:01:01.626Z,7.82
2019-06-08T09:06:01.435Z,6.24
2019-06-08T09:11:02.004Z,5.50
2019-06-08T09:16:09.852Z,5.42
2019-06-08T09:21:18.664Z,4.97
2019-06-08T09:26:25.204Z,6.23
2019-06-08T09:31:31.578Z,3.99
2019-06-08T09:36:40.813Z,5.27
2019-06-08T09:41:47.901Z,6.04
2019-06-08T09:46:55.153Z,5.79
2019-06-08T09:52:04.091Z,6.47
2019-06-08T09:57:11.973Z,5.25
2019-06-08T10:02:18.756Z,4.63
2019-06-08T10:07:25.496Z,3.58
2019-06-08T10:12:32.243Z,5.18
2019-06-08T10:17:38.949Z,6.31
2019-06-08T10:22:59.317Z,4.97
2019-06-08T10:27:47.599Z,4.29
2019-06-08T10:32:55.472Z,6.55
2019-06-08T10:38:07.127Z,3.88
2019-06-08T10:43:09.497Z,6.09
2019-06-08T10:48:07.702Z,3.41
2019-06-08T10:53:16.564Z,6.68
2019-06-08T10:58:23.437Z,4.55
2019-06-08T11:03:30.733Z,6.27
2019-06-08T11:08:38.965Z,3.35
2019-06-08T11:13:50.100Z,5.82
2019-06-08T11:18:50.603Z,4.27
2019-06-08T11:24:04.505Z,6.37
2019-06-08T11:28:54.181Z,5.42
2019-06-08T11:34:02.638Z,3.04
2019-06-08T11:39:02.258Z,5.18
2019-06-08T11:44:12.540Z,3.74
2019-06-08T11:49:14.731Z,4.25
2019-06-08T11:54:27.364Z,4.65
2019-06-08T11:59:17.968Z,4.37
2019-06-08T12:04:28.354Z,4.42
2019-06-08T12:09:28.518Z,4.51
2019-06-08T12:14:26.026Z,6.34
2019-06-08T12:19:32.543Z,3.89
2019-06-08T12:24:42.419Z,3.91
2019-06-08T12:29:38.966Z,3.86
2019-06-08T12:34:45.731Z,4.78
2019-06-08T12:39:52.146Z,5.24
2019-06-08T12:44:59.347Z,5.47
2019-06-08T12:50:08.233Z,4.34
2019-06-08T12:55:12.581Z,3.23
2019-06-08T13:00:14.886Z,3.63
2019-06-08T13:05:23.020Z,3.41
2019-06-08T13:10:29.695Z,3.35
2019-06-08T13:15:38.419Z,4.22
2019-06-08T13:20:45.235Z,4.57
2019-06-08T13:25:51.516Z,5.55
2019-06-08T13:30:58.246Z,6.27
2019-06-08T13:36:04.821Z,5.43
2019-06-08T13:41:27.185Z,5.06
2019-06-08T13:46:19.048Z,5.46
2019-06-08T13:51:22.251Z,4.81
2019-06-08T13:56:20.794Z,8.15
2019-06-08T14:01:30.680Z,6.48
2019-06-08T14:06:28.426Z,4.54
2019-06-08T14:11:34.819Z,4.86
2019-06-08T14:16:41.534Z,5.28
2019-06-08T14:21:49.019Z,4.95
2019-06-08T14:26:55.303Z,5.94
2019-06-08T14:32:01.992Z,7.69
2019-06-08T14:37:08.729Z,5.59
2019-06-08T14:42:19.810Z,3.82
2019-06-08T14:47:21.122Z,6.64
2019-06-08T14:52:29.446Z,8.83
2019-06-08T14:57:40.186Z,5.60
2019-06-08T15:02:49.717Z,4.88
2019-06-08T15:08:00.418Z,7.26
2019-06-08T15:12:57.925Z,5.31
2019-06-08T15:18:05.071Z,4.88
2019-06-08T15:23:11.375Z,4.54
2019-06-08T15:28:18.221Z,5.75
2019-06-08T15:33:26.955Z,6.72
2019-06-08T15:38:29.680Z,4.64
2019-06-08T15:43:29.203Z,7.14
2019-06-08T15:48:32.259Z,5.29
2019-06-08T15:53:40.380Z,4.69
2019-06-08T15:58:48.692Z,7.70
2019-06-08T16:03:55.421Z,5.07
2019-06-08T16:09:01.692Z,7.94
2019-06-08T16:14:08.256Z,4.62
2019-06-08T16:19:14.605Z,5.92
2019-06-08T16:24:20.975Z,8.43
2019-06-08T16:29:27.306Z,5.05
2019-06-08T16:34:33.780Z,6.26
2019-06-08T16:39:41.611Z,6.74
2019-06-08T16:44:48.300Z,6.22
2019-06-08T16:49:55.049Z,6.55
2019-06-08T16:55:02.108Z,6.16
2019-06-08T17:00:31.551Z,7.35
2019-06-08T17:05:15.518Z,6.52
2019-06-08T17:10:21.876Z,6.00
2019-06-08T17:15:28.410Z,5.12
2019-06-08T17:20:34.715Z,5.30
2019-06-08T17:25:41.213Z,5.49
2019-06-08T17:30:48.053Z,8.51
2019-06-08T17:35:54.719Z,7.06
2019-06-08T17:41:01.029Z,7.33
2019-06-08T17:46:07.979Z,6.41
2019-06-08T17:51:14.357Z,14.27
2019-06-08T17:56:20.784Z,7.98
2019-06-08T18:01:27.501Z,6.49
2019-06-08T18:06:33.948Z,7.49
2019-06-08T18:11:41.894Z,6.84
2019-06-08T18:16:50.186Z,7.70
2019-06-08T18:22:02.990Z,6.27
2019-06-08T18:27:01.363Z,8.36
2019-06-08T18:32:07.853Z,6.94
2019-06-08T18:37:15.194Z,8.08
2019-06-08T18:42:21.550Z,5.36
2019-06-08T18:47:27.848Z,7.76
2019-06-08T18:52:35.424Z,12.34
2019-06-08T18:57:35.395Z,11.75
2019-06-08T19:02:44.872Z,7.81
2019-06-08T19:07:52.671Z,11.76
2019-06-08T19:12:58.977Z,7.70
2019-06-08T19:18:07.917Z,6.49
2019-06-08T19:23:14.394Z,6.25
2019-06-08T19:28:35.199Z,5.08
2019-06-08T19:33:28.052Z,4.85
2019-06-08T19:38:34.892Z,4.46
2019-06-08T19:43:42.121Z,5.86
2019-06-08T19:48:54.682Z,5.26
2019-06-08T19:53:54.892Z,5.72
2019-06-08T19:59:04.939Z,5.70
2019-06-08T20:04:04.148Z,4.43
2019-06-08T20:09:10.678Z,5.27
2019-06-08T20:14:16.883Z,4.36
2019-06-08T20:19:23.237Z,5.33
2019-06-08T20:24:29.534Z,6.52
2019-06-08T20:29:37.987Z,5.13
2019-06-08T20:34:44.763Z,4.82
2019-06-08T20:40:04.674Z,4.96
2019-06-08T20:44:57.859Z,3.60
2019-06-08T20:50:07.314Z,3.85
2019-06-08T20:55:14.062Z,6.80
2019-06-08T21:00:20.303Z,3.79
2019-06-08T21:05:27.833Z,6.02
2019-06-08T21:10:34.767Z,6.96
2019-06-08T21:15:41.080Z,6.15
2019-06-08T21:20:47.249Z,7.58
2019-06-08T21:25:55.174Z,4.88
2019-06-08T21:31:02.574Z,5.57
2019-06-08T21:36:09.289Z,3.65
2019-06-08T21:41:17.243Z,5.71
2019-06-08T21:46:24.029Z,4.66
2019-06-08T21:51:30.569Z,5.61
2019-06-08T21:56:37.061Z,5.23
2019-06-08T22:01:46.376Z,5.77
2019-06-08T22:06:52.684Z,4.61
2019-06-08T22:12:00.864Z,4.02
2019-06-08T22:17:07.940Z,3.55
2019-06-08T22:22:14.655Z,3.70
2019-06-08T22:27:21.101Z,4.58
2019-06-08T22:32:27.753Z,5.53
2019-06-08T22:37:34.188Z,6.17
2019-06-08T22:42:40.570Z,5.33
2019-06-08T22:47:47.784Z,3.71
2019-06-08T22:52:55.827Z,5.08
2019-06-08T22:57:55.403Z,4.05
2019-06-08T23:03:03.792Z,3.52
2019-06-08T23:08:10.793Z,4.62
2019-06-08T23:13:17.947Z,5.18
2019-06-08T23:18:24.273Z,3.75
2019-06-08T23:23:30.632Z,4.04
2019-06-08T23:28:37.759Z,3.45
2019-06-08T23:33:44.256Z,5.17
2019-06-08T23:38:50.446Z,3.78
2019-06-08T23:43:57.449Z,4.42
2019-06-08T23:49:05.730Z,4.66
2019-06-08T23:54:12.580Z,3.46
2019-06-08T23:59:19.140Z,4.30
